Emily Borchard — ZDIO6 — position and weather

sailwx.info

Track history (hours):
 
Tides and Currents Weather Stations Pressure Air Temp Water Temp Dewpoint Dewpoint Depression Visibility Wind Speed Wind Dir Waves Ship Positions

Emily Borchard

Last reported at 2017-Sep-18 02:45 UTC. Time now 2017-Sep-20 01:56 UTC.
Position N 39°37' W 009°39'.

Length 134 m; draft 6.1 m.

Type: Ship (hazmat cat A). MMSI: 236471000.

Date/timePositionNaut miles runAvg speedWind from/ knotsBaromVisibWave heightAir tempDewpointWater temp
2017-Sep-18 02:45N 39°37' W 009°39'714.1
2017-Sep-18 02:17N 39°31' W 009°42'414.0
2017-Sep-18 02:00N 39°28' W 009°43'714.3
2017-Sep-18 01:30N 39°20' W 009°43'714.4
2017-Sep-18 01:00N 39°13' W 009°41'714.4
2017-Sep-18 00:31N 39°06' W 009°43'714.5
2017-Sep-18 00:01N 38°59' W 009°43'714.0
2017-Sep-17 23:31N 38°52' W 009°42'714.5
2017-Sep-17 23:00N 38°45' W 009°42'612.9
2017-Sep-17 22:30N 38°38' W 009°39'713.7
2017-Sep-17 22:00N 38°34' W 009°33'714.0
2017-Sep-17 21:31N 38°29' W 009°26'714.3
2017-Sep-17 21:01N 38°25' W 009°19'612.9
2017-Sep-17 20:30N 38°21' W 009°12'714.2
2017-Sep-17 20:00N 38°24' W 009°04'613.0
2017-Sep-17 19:30N 38°28' W 008°57'5 9.5
2017-Sep-17 19:00N 38°31' W 008°52'0 0.0
2017-Sep-17 18:29N 38°31' W 008°52'0 0.0
2017-Sep-17 17:59N 38°31' W 008°52'0 0.0
2017-Sep-17 17:29N 38°31' W 008°52'0 0.0
2017-Sep-17 16:59N 38°31' W 008°52'0 0.0
2017-Sep-17 16:29N 38°31' W 008°52'0 0.0
2017-Sep-17 15:59N 38°31' W 008°52'0 0.0
2017-Sep-17 15:29N 38°31' W 008°52'0 0.0
2017-Sep-17 14:59N 38°31' W 008°52'0 0.0
2017-Sep-17 14:29N 38°31' W 008°52'0 0.0
2017-Sep-17 13:59N 38°31' W 008°52'0 0.0
2017-Sep-17 13:29N 38°31' W 008°52'1 1.9
2017-Sep-17 13:00N 38°31' W 008°54'612.8
2017-Sep-17 12:30N 38°26' W 008°58'612.6
2017-Sep-17 12:01N 38°20' W 008°58'815.4
2017-Sep-17 11:31N 38°12' W 008°57'815.4
2017-Sep-17 11:01N 38°04' W 008°56'815.8
2017-Sep-17 10:31N 37°57' W 008°55'3 6.4
2017-Sep-17 10:00N 37°56' W 008°51'0 0.0
2017-Sep-17 09:28N 37°56' W 008°51'0 0.0
2017-Sep-17 08:58N 37°56' W 008°51'0 0.0
2017-Sep-17 08:28N 37°56' W 008°51'0 0.0
2017-Sep-17 07:58N 37°56' W 008°51'0 0.0
2017-Sep-17 07:28N 37°56' W 008°51'0 0.0
2017-Sep-17 06:58N 37°56' W 008°51'0 0.0
2017-Sep-17 06:28N 37°56' W 008°51'0 0.0
2017-Sep-17 05:58N 37°56' W 008°51'0 0.0
2017-Sep-17 05:28N 37°56' W 008°51'0 0.0
2017-Sep-17 04:58N 37°56' W 008°51'0 0.7
2017-Sep-17 04:30N 37°56' W 008°51'1 2.0
2017-Sep-17 04:00N 37°55' W 008°52'4 8.5
2017-Sep-17 03:31N 37°57' W 008°57'816.2
2017-Sep-17 03:01N 38°01' W 009°05'816.2
2017-Sep-17 02:31N 38°06' W 009°14'816.4
2017-Sep-17 02:00N 38°11' W 009°21'816.4
2017-Sep-17 01:31N 38°16' W 009°30'816.3
2017-Sep-17 01:00N 38°21' W 009°38'816.2
2017-Sep-17 00:30N 38°25' W 009°47'816.0
2017-Sep-17 00:00N 38°30' W 009°55'815.8
2017-Sep-16 23:31N 38°35' W 010°03'815.2
2017-Sep-16 23:00N 38°42' W 010°06'815.7
2017-Sep-16 22:30N 38°50' W 010°06'815.7
2017-Sep-16 22:00N 38°58' W 010°07'815.5
2017-Sep-16 21:30N 39°05' W 010°06'815.7
2017-Sep-16 21:00N 39°13' W 010°07'816.0
2017-Sep-16 20:30N 39°21' W 010°07'79517.0
2017-Sep-14 21:38N 52°14' W 005°40'219.6
2017-Sep-14 21:30N 52°16' W 005°39'1019.6
2017-Sep-14 21:01N 52°25' W 005°33'10916.9
2017-Sep-14 14:32N 54°06' W 004°22'015.6
2017-Sep-14 14:30N 54°06' W 004°22'3215.3
2017-Sep-14 12:26N 53°40' W 003°50'715.5
2017-Sep-14 12:00N 53°35' W 003°43'815.0
2017-Sep-14 11:30N 53°34' W 003°31'815.9
2017-Sep-14 11:00N 53°32' W 003°18'714.7
2017-Sep-14 10:30N 53°30' W 003°06'4 8.3
2017-Sep-14 10:00N 53°27' W 003°01'0 0.0
2017-Sep-14 09:30N 53°27' W 003°01'1 1.1
2017-Sep-14 09:00N 53°28' W 003°01'0 0.0
2017-Sep-14 08:30N 53°28' W 003°01'0 0.0
2017-Sep-14 08:00N 53°28' W 003°01'0 0.0
2017-Sep-14 07:30N 53°28' W 003°01'0 0.0
2017-Sep-14 07:00N 53°28' W 003°01'0 0.0
2017-Sep-14 06:30N 53°28' W 003°01'0 0.0
2017-Sep-14 06:00N 53°28' W 003°01'0 0.0
2017-Sep-14 05:30N 53°28' W 003°01'0 0.0
2017-Sep-14 05:00N 53°28' W 003°01'0 0.0
2017-Sep-14 04:30N 53°28' W 003°01'0 0.0
2017-Sep-14 04:00N 53°28' W 003°01'0 0.0
2017-Sep-14 03:24N 53°28' W 003°01'0 0.0
2017-Sep-14 03:00N 53°28' W 003°01'0 0.0
2017-Sep-14 02:30N 53°28' W 003°01'0 0.0
2017-Sep-14 02:00N 53°28' W 003°01'0 0.0
2017-Sep-14 01:30N 53°28' W 003°01'0 0.0
2017-Sep-14 01:00N 53°28' W 003°01'0 0.0
2017-Sep-14 00:27N 53°28' W 003°01'0 0.0
2017-Sep-14 00:00N 53°28' W 003°01'0 0.0
2017-Sep-13 23:30N 53°28' W 003°01'0 0.0
2017-Sep-13 23:00N 53°28' W 003°01'0 0.0
2017-Sep-13 22:24N 53°28' W 003°01'0 0.0
2017-Sep-13 22:00N 53°28' W 003°01'0 0.0
2017-Sep-13 21:30N 53°28' W 003°01'0 0.0
2017-Sep-13 21:00N 53°28' W 003°01'0 0.0
2017-Sep-13 20:24N 53°28' W 003°01'0 0.0
2017-Sep-13 20:00N 53°28' W 003°01'0 0.0
2017-Sep-13 19:27N 53°28' W 003°01'0 0.0
2017-Sep-13 18:54N 53°28' W 003°01'0 0.0
2017-Sep-13 18:27N 53°28' W 003°01'0 0.0
2017-Sep-13 18:00N 53°28' W 003°01'0 0.0
2017-Sep-13 17:30N 53°28' W 003°01'0 0.0
2017-Sep-13 17:00N 53°28' W 003°01'0 0.0
2017-Sep-13 16:30N 53°28' W 003°01'0 0.0
2017-Sep-13 15:57N 53°28' W 003°01'0 0.0
2017-Sep-13 15:30N 53°28' W 003°01'0 0.0
2017-Sep-13 15:00N 53°28' W 003°01'0 0.0
2017-Sep-13 14:30N 53°28' W 003°01'0 0.0
2017-Sep-13 14:00N 53°28' W 003°01'0 0.3
2017-Sep-13 13:30N 53°28' W 003°01'0 0.0
2017-Sep-13 13:00N 53°28' W 003°01'0 0.6
2017-Sep-13 12:30N 53°27' W 003°01'0 0.5
2017-Sep-13 12:00N 53°27' W 003°01'0 0.0
2017-Sep-13 11:31N 53°27' W 003°01'0 0.4
2017-Sep-13 11:00N 53°27' W 003°01'2 3.8
2017-Sep-13 10:30N 53°28' W 003°04'4 8.9
2017-Sep-13 10:00N 53°32' W 003°08'510.4
2017-Sep-13 09:30N 53°31' W 003°17'815.6
2017-Sep-13 09:00N 53°31' W 003°30'917.1
2017-Sep-13 08:31N 53°30' W 003°44'917.0
2017-Sep-13 08:00N 53°27' W 003°58'916.9
2017-Sep-13 07:30N 53°25' W 004°12'80 6.5
2017-Sep-12 19:14N 52°19' W 005°28'416.1
2017-Sep-12 19:00N 52°16' W 005°31'816.0
2017-Sep-12 18:30N 52°08' W 005°35'815.5
2017-Sep-12 18:00N 52°01' W 005°40'  
2017-Sep-10 06:04N 39°31' W 009°50'112.9
2017-Sep-10 06:00N 39°31' W 009°50'613.1
2017-Sep-10 05:30N 39°24' W 009°50'713.7
2017-Sep-10 05:00N 39°17' W 009°50'713.6
2017-Sep-10 04:30N 39°11' W 009°51'713.5
2017-Sep-10 04:00N 39°04' W 009°52'713.4
2017-Sep-10 03:30N 38°57' W 009°51'713.6
2017-Sep-10 03:01N 38°50' W 009°51'713.6
2017-Sep-10 02:30N 38°43' W 009°51'612.9
2017-Sep-10 02:00N 38°38' W 009°47'713.4
2017-Sep-10 01:30N 38°34' W 009°40'713.8
2017-Sep-10 01:01N 38°31' W 009°33'713.8
2017-Sep-10 00:31N 38°27' W 009°25'713.9
2017-Sep-10 00:01N 38°23' W 009°18'612.5
2017-Sep-09 23:31N 38°22' W 009°10'714.6
2017-Sep-09 23:01N 38°26' W 009°01'713.9
2017-Sep-09 22:30N 38°30' W 008°55'2 1.8
2017-Sep-09 21:23N 38°31' W 008°52'0 0.0
2017-Sep-09 20:53N 38°31' W 008°52'0 0.0
2017-Sep-09 20:23N 38°31' W 008°52'0 0.0
2017-Sep-09 18:14N 38°31' W 008°52'0 0.0
2017-Sep-09 16:59N 38°31' W 008°52'0 0.0
2017-Sep-09 15:28N 38°31' W 008°52'1 1.2
2017-Sep-09 15:00N 38°31' W 008°53'510.6
2017-Sep-09 14:31N 38°27' W 008°58'713.9
2017-Sep-09 14:01N 38°20' W 008°58'714.6
2017-Sep-09 13:31N 38°13' W 008°57'815.2
2017-Sep-09 13:01N 38°06' W 008°56'815.6
2017-Sep-09 12:31N 37°58' W 008°55'4 7.3
2017-Sep-09 12:01N 37°56' W 008°51'0 0.1
2017-Sep-09 11:29N 37°56' W 008°51'0 0.0
2017-Sep-09 10:59N 37°56' W 008°51'0 0.0
2017-Sep-09 10:29N 37°56' W 008°51'0 0.0
2017-Sep-09 09:59N 37°56' W 008°51'0 0.0
2017-Sep-09 09:29N 37°56' W 008°51'0 0.0
2017-Sep-09 08:59N 37°56' W 008°51'0 0.0
2017-Sep-09 08:29N 37°56' W 008°51'0 0.0
2017-Sep-09 07:59N 37°56' W 008°51'0 0.0
2017-Sep-09 07:29N 37°56' W 008°51'0 0.0
2017-Sep-09 06:59N 37°56' W 008°51'0 0.0
2017-Sep-09 06:29N 37°56' W 008°51'0 0.0
2017-Sep-09 05:59N 37°56' W 008°51'0 0.0
2017-Sep-09 05:30N 37°56' W 008°51'2 3.9
2017-Sep-09 05:01N 37°54' W 008°51'510.7
2017-Sep-09 04:30N 37°57' W 008°57'816.0
2017-Sep-09 04:01N 38°03' W 009°03'816.7
2017-Sep-09 03:30N 38°09' W 009°10'816.6
2017-Sep-09 03:00N 38°16' W 009°17'816.6
2017-Sep-09 02:31N 38°22' W 009°24'816.7
2017-Sep-09 02:01N 38°28' W 009°31'917.6
2017-Sep-09 01:31N 38°35' W 009°38'817.0
2017-Sep-09 01:01N 38°42' W 009°43'917.2
2017-Sep-09 00:30N 38°51' W 009°44'917.3
2017-Sep-09 00:01N 38°60' W 009°44'917.6
2017-Sep-08 23:30N 39°09' W 009°45'918.1
2017-Sep-08 23:01N 39°18' W 009°45'918.0
2017-Sep-08 22:30N 39°27' W 009°45'917.0
2017-Sep-08 22:00N 39°35' W 009°42'1017.4
2017-Sep-08 21:25N 39°44' W 009°37'917.6
2017-Sep-08 20:53N 39°52' W 009°31'717.6
2017-Sep-08 20:28N 39°59' W 009°27'2917.7
2017-Sep-08 18:50N 40°25' W 009°11'  
Track history (hours):
 
Tides and Currents Weather Stations Pressure Air Temp Water Temp Dewpoint Dewpoint Depression Visibility Wind Speed Wind Dir Waves Ship Positions

Emily Borchard

Last reported at 2017-Sep-18 02:45 UTC. Time now 2017-Sep-20 01:56 UTC.
Position N 39°37' W 009°39'.

Length 134 m; draft 6.1 m.

Type: Ship (hazmat cat A). MMSI: 236471000.

Date/timePositionNaut miles runAvg speedWind from/ knotsBaromVisibWave heightAir tempDewpointWater temp
2017-Sep-18 02:45N 39°37' W 009°39'714.1
2017-Sep-18 02:17N 39°31' W 009°42'414.0
2017-Sep-18 02:00N 39°28' W 009°43'714.3
2017-Sep-18 01:30N 39°20' W 009°43'714.4
2017-Sep-18 01:00N 39°13' W 009°41'714.4
2017-Sep-18 00:31N 39°06' W 009°43'714.5
2017-Sep-18 00:01N 38°59' W 009°43'714.0
2017-Sep-17 23:31N 38°52' W 009°42'714.5
2017-Sep-17 23:00N 38°45' W 009°42'612.9
2017-Sep-17 22:30N 38°38' W 009°39'713.7
2017-Sep-17 22:00N 38°34' W 009°33'714.0
2017-Sep-17 21:31N 38°29' W 009°26'714.3
2017-Sep-17 21:01N 38°25' W 009°19'612.9
2017-Sep-17 20:30N 38°21' W 009°12'714.2
2017-Sep-17 20:00N 38°24' W 009°04'613.0
2017-Sep-17 19:30N 38°28' W 008°57'5 9.5
2017-Sep-17 19:00N 38°31' W 008°52'0 0.0
2017-Sep-17 18:29N 38°31' W 008°52'0 0.0
2017-Sep-17 17:59N 38°31' W 008°52'0 0.0
2017-Sep-17 17:29N 38°31' W 008°52'0 0.0
2017-Sep-17 16:59N 38°31' W 008°52'0 0.0
2017-Sep-17 16:29N 38°31' W 008°52'0 0.0
2017-Sep-17 15:59N 38°31' W 008°52'0 0.0
2017-Sep-17 15:29N 38°31' W 008°52'0 0.0
2017-Sep-17 14:59N 38°31' W 008°52'0 0.0
2017-Sep-17 14:29N 38°31' W 008°52'0 0.0
2017-Sep-17 13:59N 38°31' W 008°52'0 0.0
2017-Sep-17 13:29N 38°31' W 008°52'1 1.9
2017-Sep-17 13:00N 38°31' W 008°54'612.8
2017-Sep-17 12:30N 38°26' W 008°58'612.6
2017-Sep-17 12:01N 38°20' W 008°58'815.4
2017-Sep-17 11:31N 38°12' W 008°57'815.4
2017-Sep-17 11:01N 38°04' W 008°56'815.8
2017-Sep-17 10:31N 37°57' W 008°55'3 6.4
2017-Sep-17 10:00N 37°56' W 008°51'0 0.0
2017-Sep-17 09:28N 37°56' W 008°51'0 0.0
2017-Sep-17 08:58N 37°56' W 008°51'0 0.0
2017-Sep-17 08:28N 37°56' W 008°51'0 0.0
2017-Sep-17 07:58N 37°56' W 008°51'0 0.0
2017-Sep-17 07:28N 37°56' W 008°51'0 0.0
2017-Sep-17 06:58N 37°56' W 008°51'0 0.0
2017-Sep-17 06:28N 37°56' W 008°51'0 0.0
2017-Sep-17 05:58N 37°56' W 008°51'0 0.0
2017-Sep-17 05:28N 37°56' W 008°51'0 0.0
2017-Sep-17 04:58N 37°56' W 008°51'0 0.7
2017-Sep-17 04:30N 37°56' W 008°51'1 2.0
2017-Sep-17 04:00N 37°55' W 008°52'4 8.5
2017-Sep-17 03:31N 37°57' W 008°57'816.2
2017-Sep-17 03:01N 38°01' W 009°05'816.2
2017-Sep-17 02:31N 38°06' W 009°14'816.4
2017-Sep-17 02:00N 38°11' W 009°21'816.4
2017-Sep-17 01:31N 38°16' W 009°30'816.3
2017-Sep-17 01:00N 38°21' W 009°38'816.2
2017-Sep-17 00:30N 38°25' W 009°47'816.0
2017-Sep-17 00:00N 38°30' W 009°55'815.8
2017-Sep-16 23:31N 38°35' W 010°03'815.2
2017-Sep-16 23:00N 38°42' W 010°06'815.7
2017-Sep-16 22:30N 38°50' W 010°06'815.7
2017-Sep-16 22:00N 38°58' W 010°07'815.5
2017-Sep-16 21:30N 39°05' W 010°06'815.7
2017-Sep-16 21:00N 39°13' W 010°07'816.0
2017-Sep-16 20:30N 39°21' W 010°07'79517.0
2017-Sep-14 21:38N 52°14' W 005°40'219.6
2017-Sep-14 21:30N 52°16' W 005°39'1019.6
2017-Sep-14 21:01N 52°25' W 005°33'10916.9
2017-Sep-14 14:32N 54°06' W 004°22'015.6
2017-Sep-14 14:30N 54°06' W 004°22'3215.3
2017-Sep-14 12:26N 53°40' W 003°50'715.5
2017-Sep-14 12:00N 53°35' W 003°43'815.0
2017-Sep-14 11:30N 53°34' W 003°31'815.9
2017-Sep-14 11:00N 53°32' W 003°18'714.7
2017-Sep-14 10:30N 53°30' W 003°06'4 8.3
2017-Sep-14 10:00N 53°27' W 003°01'0 0.0
2017-Sep-14 09:30N 53°27' W 003°01'1 1.1
2017-Sep-14 09:00N 53°28' W 003°01'0 0.0
2017-Sep-14 08:30N 53°28' W 003°01'0 0.0
2017-Sep-14 08:00N 53°28' W 003°01'0 0.0
2017-Sep-14 07:30N 53°28' W 003°01'0 0.0
2017-Sep-14 07:00N 53°28' W 003°01'0 0.0
2017-Sep-14 06:30N 53°28' W 003°01'0 0.0
2017-Sep-14 06:00N 53°28' W 003°01'0 0.0
2017-Sep-14 05:30N 53°28' W 003°01'0 0.0
2017-Sep-14 05:00N 53°28' W 003°01'0 0.0
2017-Sep-14 04:30N 53°28' W 003°01'0 0.0
2017-Sep-14 04:00N 53°28' W 003°01'0 0.0
2017-Sep-14 03:24N 53°28' W 003°01'0 0.0
2017-Sep-14 03:00N 53°28' W 003°01'0 0.0
2017-Sep-14 02:30N 53°28' W 003°01'0 0.0
2017-Sep-14 02:00N 53°28' W 003°01'0 0.0
2017-Sep-14 01:30N 53°28' W 003°01'0 0.0
2017-Sep-14 01:00N 53°28' W 003°01'0 0.0
2017-Sep-14 00:27N 53°28' W 003°01'0 0.0
2017-Sep-14 00:00N 53°28' W 003°01'0 0.0
2017-Sep-13 23:30N 53°28' W 003°01'0 0.0
2017-Sep-13 23:00N 53°28' W 003°01'0 0.0
2017-Sep-13 22:24N 53°28' W 003°01'0 0.0
2017-Sep-13 22:00N 53°28' W 003°01'0 0.0
2017-Sep-13 21:30N 53°28' W 003°01'0 0.0
2017-Sep-13 21:00N 53°28' W 003°01'0 0.0
2017-Sep-13 20:24N 53°28' W 003°01'0 0.0
2017-Sep-13 20:00N 53°28' W 003°01'0 0.0
2017-Sep-13 19:27N 53°28' W 003°01'0 0.0
2017-Sep-13 18:54N 53°28' W 003°01'0 0.0
2017-Sep-13 18:27N 53°28' W 003°01'0 0.0
2017-Sep-13 18:00N 53°28' W 003°01'0 0.0
2017-Sep-13 17:30N 53°28' W 003°01'0 0.0
2017-Sep-13 17:00N 53°28' W 003°01'0 0.0
2017-Sep-13 16:30N 53°28' W 003°01'0 0.0
2017-Sep-13 15:57N 53°28' W 003°01'0 0.0
2017-Sep-13 15:30N 53°28' W 003°01'0 0.0
2017-Sep-13 15:00N 53°28' W 003°01'0 0.0
2017-Sep-13 14:30N 53°28' W 003°01'0 0.0
2017-Sep-13 14:00N 53°28' W 003°01'0 0.3
2017-Sep-13 13:30N 53°28' W 003°01'0 0.0
2017-Sep-13 13:00N 53°28' W 003°01'0 0.6
2017-Sep-13 12:30N 53°27' W 003°01'0 0.5
2017-Sep-13 12:00N 53°27' W 003°01'0 0.0
2017-Sep-13 11:31N 53°27' W 003°01'0 0.4
2017-Sep-13 11:00N 53°27' W 003°01'2 3.8
2017-Sep-13 10:30N 53°28' W 003°04'4 8.9
2017-Sep-13 10:00N 53°32' W 003°08'510.4
2017-Sep-13 09:30N 53°31' W 003°17'815.6
2017-Sep-13 09:00N 53°31' W 003°30'917.1
2017-Sep-13 08:31N 53°30' W 003°44'917.0
2017-Sep-13 08:00N 53°27' W 003°58'916.9
2017-Sep-13 07:30N 53°25' W 004°12'80 6.5
2017-Sep-12 19:14N 52°19' W 005°28'416.1
2017-Sep-12 19:00N 52°16' W 005°31'816.0
2017-Sep-12 18:30N 52°08' W 005°35'815.5
2017-Sep-12 18:00N 52°01' W 005°40'  
2017-Sep-10 06:04N 39°31' W 009°50'112.9
2017-Sep-10 06:00N 39°31' W 009°50'613.1
2017-Sep-10 05:30N 39°24' W 009°50'713.7
2017-Sep-10 05:00N 39°17' W 009°50'713.6
2017-Sep-10 04:30N 39°11' W 009°51'713.5
2017-Sep-10 04:00N 39°04' W 009°52'713.4
2017-Sep-10 03:30N 38°57' W 009°51'713.6
2017-Sep-10 03:01N 38°50' W 009°51'713.6
2017-Sep-10 02:30N 38°43' W 009°51'612.9
2017-Sep-10 02:00N 38°38' W 009°47'713.4
2017-Sep-10 01:30N 38°34' W 009°40'713.8
2017-Sep-10 01:01N 38°31' W 009°33'713.8
2017-Sep-10 00:31N 38°27' W 009°25'713.9
2017-Sep-10 00:01N 38°23' W 009°18'612.5
2017-Sep-09 23:31N 38°22' W 009°10'714.6
2017-Sep-09 23:01N 38°26' W 009°01'713.9
2017-Sep-09 22:30N 38°30' W 008°55'2 1.8
2017-Sep-09 21:23N 38°31' W 008°52'0 0.0
2017-Sep-09 20:53N 38°31' W 008°52'0 0.0
2017-Sep-09 20:23N 38°31' W 008°52'0 0.0
2017-Sep-09 18:14N 38°31' W 008°52'0 0.0
2017-Sep-09 16:59N 38°31' W 008°52'0 0.0
2017-Sep-09 15:28N 38°31' W 008°52'1 1.2
2017-Sep-09 15:00N 38°31' W 008°53'510.6
2017-Sep-09 14:31N 38°27' W 008°58'713.9
2017-Sep-09 14:01N 38°20' W 008°58'714.6
2017-Sep-09 13:31N 38°13' W 008°57'815.2
2017-Sep-09 13:01N 38°06' W 008°56'815.6
2017-Sep-09 12:31N 37°58' W 008°55'4 7.3
2017-Sep-09 12:01N 37°56' W 008°51'0 0.1
2017-Sep-09 11:29N 37°56' W 008°51'0 0.0
2017-Sep-09 10:59N 37°56' W 008°51'0 0.0
2017-Sep-09 10:29N 37°56' W 008°51'0 0.0
2017-Sep-09 09:59N 37°56' W 008°51'0 0.0
2017-Sep-09 09:29N 37°56' W 008°51'0 0.0
2017-Sep-09 08:59N 37°56' W 008°51'0 0.0
2017-Sep-09 08:29N 37°56' W 008°51'0 0.0
2017-Sep-09 07:59N 37°56' W 008°51'0 0.0
2017-Sep-09 07:29N 37°56' W 008°51'0 0.0
2017-Sep-09 06:59N 37°56' W 008°51'0 0.0
2017-Sep-09 06:29N 37°56' W 008°51'0 0.0
2017-Sep-09 05:59N 37°56' W 008°51'0 0.0
2017-Sep-09 05:30N 37°56' W 008°51'2 3.9
2017-Sep-09 05:01N 37°54' W 008°51'510.7
2017-Sep-09 04:30N 37°57' W 008°57'816.0
2017-Sep-09 04:01N 38°03' W 009°03'816.7
2017-Sep-09 03:30N 38°09' W 009°10'816.6
2017-Sep-09 03:00N 38°16' W 009°17'816.6
2017-Sep-09 02:31N 38°22' W 009°24'816.7
2017-Sep-09 02:01N 38°28' W 009°31'917.6
2017-Sep-09 01:31N 38°35' W 009°38'817.0
2017-Sep-09 01:01N 38°42' W 009°43'917.2
2017-Sep-09 00:30N 38°51' W 009°44'917.3
2017-Sep-09 00:01N 38°60' W 009°44'917.6
2017-Sep-08 23:30N 39°09' W 009°45'918.1
2017-Sep-08 23:01N 39°18' W 009°45'918.0
2017-Sep-08 22:30N 39°27' W 009°45'917.0
2017-Sep-08 22:00N 39°35' W 009°42'1017.4
2017-Sep-08 21:25N 39°44' W 009°37'917.6
2017-Sep-08 20:53N 39°52' W 009°31'717.6
2017-Sep-08 20:28N 39°59' W 009°27'2917.7
2017-Sep-08 18:50N 40°25' W 009°11'  

Dump ship's entire track history